Starkville, MS

11:00 PM CST on March 05, 2015 (GMT -0600)
RAWS NOXUBEE - FTS MS US | Change Station
CLOSE
Current Station
Personal Weather Station
Location: Starkville, MS
Elevation: 350 ft
Nearby Weather Stations

Elev 350 ft 33.28 °N, 88.79 °W | Updated 36 minutes ago

Clear
Clear
27.0 °F
Feels Like 20 °F
N
6.0
Wind Variable Wind from NNW
Gusts 11.0 mph

Today
High -- | Low -- °F
--% Chance of Precip.
Yesterday
High -- | Low -- °F
Precip. -- in
6:18 AM 5:55 PM
Full, 100% visible
Pressure 30.53 in
Visibility 10.0 miles
Clouds Clear
Windchill 20 °F
Dew Point 18.0 °F
Humidity 68%
Rainfall in
Snow Depth Not available.
UV 0 out of 12
Pollen 1.00 out of 12
Air Quality Not available.
Flu Activity Not available.
METAR KSTF 060455Z AUTO 00000KT 10SM CLR M03/M07 A3053 RMK AO2

More Conditions Fewer Conditions

Pressure 30.53 in
Visibility 10.0 miles
Clouds Clear
Windchill 20 °F
Dew Point 18.0 °F
Humidity 68%
Rainfall in
Snow Depth Not available.
UV 0 out of 12
Pollen 1.00 out of 12
Air Quality Not available.
Flu Activity Not available.
METAR KSTF 060455Z AUTO 00000KT 10SM CLR M03/M07 A3053 RMK AO2

More Conditions Fewer Conditions

10-Day Weather Forecast

Almanac

Astronomy

Mar. 05, 2015 Rise Set
Actual Time
Civil Twilight
Nautical Twilight
Astronomical Twilight
Moon
Length of Visible Light
Length of Day
Tomorrow will be .
, % of the Moon is Illuminated

Today's Extremes

State Highs State Lows

Community

WunderPhotos

Upload Photos

1,803,184 photos uploaded!

WunderBlogs® & News

Nearby

Air Quality

  Air Quality AQ Index Pollutant
Not available.

Snow Depth

Station Depth Elevation

Earthquake Activity

City Distance Mag. Time & Date
Minimum magnitude displayed is 2.5.

Coastal Water Temperatures

Place Temperature

Nearby Weather Stations